Time;durP1;ratioP1;P1;durP2;ratioP2;P2;SDS_P1;SDS_P2;PMS_P1;PMS_P2;Temp;Humidity;BMP_temperature;BMP_pressure;BME280_temperature;BME280_humidity;BME280_pressure;Samples;Min_cycle;Max_cycle;Signal;HPM_P1;HPM_P2
2022/04/02 00:01:22;;;;;;;2.75;1.35;;;;;;;2.09;47.87;99856.16;5035552;28;20113;-56
2022/04/02 00:03:47;;;;;;;4.57;1.40;;;;;;;2.08;47.93;99858.78;5035497;28;20104;-57
2022/04/02 00:06:13;;;;;;;3.42;1.38;;;;;;;2.15;48.10;99853.59;5034054;28;20136;-57
2022/04/02 00:08:39;;;;;;;5.00;1.65;;;;;;;2.11;48.62;99858.75;5035749;28;20494;-57
2022/04/02 00:11:05;;;;;;;3.03;1.60;;;;;;;2.16;48.97;99851.88;5035209;28;20472;-57
2022/04/02 00:13:31;;;;;;;10.82;1.63;;;;;;;2.11;48.94;99849.25;5035809;28;20452;-57
2022/04/02 00:15:58;;;;;;;4.47;1.45;;;;;;;2.09;49.16;99851.00;5034011;28;20068;-56
2022/04/02 00:18:23;;;;;;;4.55;1.77;;;;;;;2.06;49.88;99850.97;5035194;28;20174;-57
2022/04/02 00:20:49;;;;;;;4.93;1.50;;;;;;;2.10;49.28;99849.25;5026350;28;20462;-57
2022/04/02 00:25:58;;;;;;;5.50;1.60;;;;;;;2.04;49.88;99847.53;5015179;28;20152;-53
2022/04/02 00:28:24;;;;;;;3.58;1.50;;;;;;;2.00;50.19;99844.91;5015443;28;20109;-54
2022/04/02 00:30:49;;;;;;;3.80;1.42;;;;;;;1.93;51.12;99850.06;5015054;28;20061;-56
2022/04/02 00:33:15;;;;;;;3.63;1.52;;;;;;;1.94;50.89;99841.41;5013657;28;20052;-57
2022/04/02 00:35:40;;;;;;;3.70;1.65;;;;;;;1.91;51.54;99851.75;5015035;28;20046;-58
2022/04/02 00:38:07;;;;;;;4.15;1.60;;;;;;;2.02;51.27;99833.66;5013328;28;20050;-58
2022/04/02 00:40:32;;;;;;;3.22;1.30;;;;;;;2.01;51.61;99846.63;5013704;28;20076;-55
2022/04/02 00:42:58;;;;;;;3.78;1.77;;;;;;;2.02;51.96;99843.19;5014789;28;20481;-56
2022/04/02 00:45:23;;;;;;;2.67;1.35;;;;;;;2.03;52.08;99850.94;5032789;28;20116;-56
2022/04/02 00:47:49;;;;;;;5.68;1.70;;;;;;;2.00;52.85;99855.28;5034701;28;20091;-55
2022/04/02 00:50:14;;;;;;;2.67;1.30;;;;;;;2.05;52.87;99848.38;5034614;28;20179;-56
2022/04/02 00:52:40;;;;;;;3.85;1.33;;;;;;;2.06;52.89;99839.75;5034365;28;20112;-57
2022/04/02 00:55:06;;;;;;;3.65;1.40;;;;;;;1.92;54.24;99853.50;5034562;28;20069;-58
2022/04/02 00:57:32;;;;;;;4.35;1.60;;;;;;;1.93;54.29;99850.06;5034564;28;20389;-58
2022/04/02 00:59:57;;;;;;;3.65;1.10;;;;;;;1.90;54.53;99838.81;5033901;28;20484;-55
2022/04/02 01:02:23;;;;;;;4.20;1.60;;;;;;;1.94;54.58;99850.91;5032968;28;20079;-58
2022/04/02 01:04:49;;;;;;;5.82;1.45;;;;;;;2.01;54.38;99850.09;5034315;28;20036;-58
2022/04/02 01:07:19;;;;;;;2.88;1.20;;;;;;;1.89;55.46;99848.31;5033334;28;20041;-57
2022/04/02 01:09:45;;;;;;;3.45;1.85;;;;;;;2.02;54.42;99848.34;5034508;28;20045;-56
2022/04/02 01:12:11;;;;;;;4.68;1.73;;;;;;;1.94;55.16;99858.69;5027416;28;20088;-57
2022/04/02 01:14:36;;;;;;;5.15;1.50;;;;;;;1.92;55.17;99834.50;5032484;28;20033;-56
2022/04/02 01:17:04;;;;;;;3.60;1.40;;;;;;;1.86;55.41;99842.25;5031127;28;20366;-56
2022/04/02 01:19:29;;;;;;;3.40;1.55;;;;;;;1.88;56.03;99845.72;5014215;28;20375;-57
2022/04/02 01:21:55;;;;;;;3.67;1.60;;;;;;;1.82;56.21;99845.66;5015177;28;20040;-56
2022/04/02 01:24:20;;;;;;;5.78;2.10;;;;;;;1.82;56.19;99831.00;5014461;28;20033;-55
2022/04/02 01:26:46;;;;;;;4.70;1.70;;;;;;;1.76;56.93;99850.84;5014157;28;20034;-54
2022/04/02 01:29:11;;;;;;;5.88;1.38;;;;;;;1.81;56.57;99841.34;5018319;28;20033;-54
2022/04/02 01:31:37;;;;;;;4.70;1.33;;;;;;;1.77;56.72;99843.06;5019873;28;20034;-57
2022/04/02 01:34:03;;;;;;;6.90;1.50;;;;;;;1.77;56.74;99842.19;5012936;28;20040;-57
2022/04/02 01:36:28;;;;;;;3.42;1.55;;;;;;;1.73;57.61;99849.09;5015013;28;20089;-57
2022/04/02 01:38:54;;;;;;;4.47;1.30;;;;;;;1.82;56.91;99851.72;5012441;28;20511;-53
2022/04/02 01:41:20;;;;;;;3.63;1.40;;;;;;;1.78;57.31;99839.59;5020978;28;20041;-57
2022/04/02 01:43:46;;;;;;;3.67;1.20;;;;;;;1.72;57.56;99852.53;5013843;28;20030;-57
2022/04/02 01:46:12;;;;;;;3.65;1.20;;;;;;;1.70;57.67;99839.56;5014888;28;20037;-57
2022/04/02 01:48:39;;;;;;;5.03;1.20;;;;;;;1.66;57.97;99844.72;5027586;28;20175;-55
2022/04/02 01:51:04;;;;;;;3.15;1.10;;;;;;;1.75;58.05;99846.50;5023918;28;20052;-55
2022/04/02 01:53:31;;;;;;;4.00;1.23;;;;;;;1.75;57.71;99843.91;5031414;28;20034;-56
2022/04/02 01:55:57;;;;;;;4.95;1.48;;;;;;;1.60;58.65;99845.56;5033565;28;20040;-55
2022/04/02 01:58:23;;;;;;;5.00;1.52;;;;;;;1.65;58.21;99845.59;5029623;28;20034;-57
2022/04/02 02:00:48;;;;;;;3.42;1.55;;;;;;;1.59;59.32;99853.31;5020055;28;20053;-54
2022/04/02 02:03:14;;;;;;;4.13;1.48;;;;;;;1.58;59.05;99846.41;5016599;28;20038;-57
2022/04/02 02:05:40;;;;;;;2.75;1.00;;;;;;;1.73;58.36;99847.34;5027271;28;20432;-57
2022/04/02 02:08:06;;;;;;;3.92;1.40;;;;;;;1.53;59.83;99863.63;5014867;28;20458;-54
2022/04/02 02:10:32;;;;;;;4.32;1.20;;;;;;;1.62;59.38;99849.00;5032019;28;20072;-57
2022/04/02 02:12:58;;;;;;;3.30;1.30;;;;;;;1.63;59.15;99845.56;5016559;28;20052;-56
2022/04/02 02:15:24;;;;;;;3.17;1.00;;;;;;;1.60;59.60;99850.75;5017949;28;20037;-55
2022/04/02 02:17:51;;;;;;;5.13;1.70;;;;;;;1.55;59.71;99862.78;5021996;28;20036;-57
2022/04/02 02:20:17;;;;;;;3.30;1.38;;;;;;;1.60;59.39;99845.56;5025835;28;20129;-55
2022/04/02 02:22:44;;;;;;;4.15;1.40;;;;;;;1.56;59.83;99838.63;5031434;28;20034;-58
2022/04/02 02:25:12;;;;;;;3.28;1.58;;;;;;;1.52;60.38;99834.28;5017562;28;20061;-56
2022/04/02 02:27:38;;;;;;;4.03;1.17;;;;;;;1.55;59.98;99836.88;5017221;28;20029;-57
2022/04/02 02:30:06;;;;;;;4.95;1.50;;;;;;;1.66;59.88;99839.53;5036329;28;20033;-56
2022/04/02 02:32:36;;;;;;;2.35;1.35;;;;;;;1.57;59.95;99830.00;5035595;28;20030;-57
2022/04/02 02:38:06;;;;;;;2.67;1.30;;;;;;;1.55;60.59;99836.00;5023141;28;20054;-57
2022/04/02 02:40:31;;;;;;;4.90;1.35;;;;;;;1.51;60.45;99840.31;5025320;28;20044;-57
2022/04/02 02:42:57;;;;;;;4.55;1.55;;;;;;;1.48;60.57;99830.81;5022660;28;20112;-53
2022/04/02 02:45:23;;;;;;;5.75;1.50;;;;;;;1.51;60.55;99834.25;5031765;28;20034;-57
2022/04/02 02:47:48;;;;;;;2.78;1.25;;;;;;;1.53;59.94;99833.44;5033109;28;20048;-55
2022/04/02 02:50:13;;;;;;;6.47;1.52;;;;;;;1.55;60.29;99836.00;5031385;28;20087;-54
2022/04/02 02:52:39;;;;;;;6.30;1.42;;;;;;;1.54;60.01;99837.75;5018486;28;20065;-56
2022/04/02 02:55:04;;;;;;;3.65;1.60;;;;;;;1.50;59.96;99833.41;5026448;28;20466;-56
2022/04/02 02:57:37;;;;;;;4.30;1.33;;;;;;;1.49;60.63;99829.09;5028542;28;20037;-53
2022/04/02 03:00:03;;;;;;;;;;;;;;;1.51;60.66;99832.53;5037050;28;20037;-57
2022/04/02 03:02:29;;;;;;;3.70;1.30;;;;;;;1.52;59.69;99831.72;5031858;28;19921;-56
2022/04/02 03:04:54;;;;;;;3.10;1.38;;;;;;;1.55;59.50;99830.84;5036641;28;20545;-57
2022/04/02 03:07:19;;;;;;;4.20;1.40;;;;;;;1.53;59.69;99832.56;5002643;28;20034;-57
2022/04/02 03:09:45;;;;;;;3.63;1.65;;;;;;;1.59;59.45;99838.63;5028061;28;20466;-55
2022/04/02 03:12:11;;;;;;;3.38;1.23;;;;;;;1.49;59.89;99836.84;5016476;28;20042;-57
2022/04/02 03:14:36;;;;;;;2.08;1.00;;;;;;;1.50;59.83;99830.81;5031989;28;20041;-56
2022/04/02 03:17:02;;;;;;;2.65;1.10;;;;;;;1.50;59.71;99823.03;5023099;28;20044;-55
2022/04/02 03:19:27;;;;;;;6.60;1.25;;;;;;;1.45;59.77;99841.16;5016627;28;20033;-57
2022/04/02 03:21:53;;;;;;;3.45;1.40;;;;;;;1.43;59.94;99836.81;5029235;28;20489;-57
2022/04/02 03:24:18;;;;;;;2.60;1.20;;;;;;;1.44;59.87;99836.84;5034244;28;20060;-57
2022/04/02 03:26:44;;;;;;;2.88;1.45;;;;;;;1.42;60.02;99854.06;5024529;28;20072;-57
2022/04/02 03:29:09;;;;;;;4.35;1.45;;;;;;;1.46;59.90;99847.19;5016112;28;20536;-57
2022/04/02 03:31:34;;;;;;;4.22;1.77;;;;;;;1.47;59.56;99851.50;5017437;28;20042;-55
2022/04/02 03:34:00;;;;;;;4.30;1.48;;;;;;;1.51;59.37;99850.66;5016331;28;20076;-57
2022/04/02 03:36:26;;;;;;;3.80;1.23;;;;;;;1.53;59.34;99848.97;5023492;28;20038;-56
2022/04/02 03:38:51;;;;;;;4.47;1.63;;;;;;;1.52;59.41;99854.13;5035522;28;20053;-57
2022/04/02 03:41:17;;;;;;;3.67;1.50;;;;;;;1.44;59.37;99854.09;5029647;28;20122;-57
2022/04/02 03:43:42;;;;;;;2.78;1.38;;;;;;;1.41;59.21;99854.94;5015901;28;20129;-55
2022/04/02 03:48:51;;;;;;;4.18;1.45;;;;;;;1.52;58.91;99846.34;5035007;28;20167;-58
2022/04/02 03:51:18;;;;;;;4.15;1.50;;;;;;;1.48;58.81;99861.88;5030708;28;20509;-57
2022/04/02 03:53:43;;;;;;;4.53;1.48;;;;;;;1.47;58.80;99859.25;5015933;28;20038;-57
2022/04/02 03:56:10;;;;;;;2.58;1.00;;;;;;;1.59;58.53;99856.75;5018151;28;20050;-57
2022/04/02 03:58:36;;;;;;;4.53;1.38;;;;;;;1.53;58.36;99843.78;5035578;28;20040;-56
2022/04/02 04:01:01;;;;;;;3.10;1.40;;;;;;;1.54;58.41;99850.69;5035016;28;20034;-58
2022/04/02 04:03:27;;;;;;;3.42;1.27;;;;;;;1.44;58.40;99849.78;5035580;28;20041;-57
2022/04/02 04:05:52;;;;;;;2.28;1.02;;;;;;;1.53;57.80;99838.59;5031886;28;20038;-54
2022/04/02 04:08:17;;;;;;;3.20;1.33;;;;;;;1.56;57.78;99851.59;5035490;28;20033;-57
2022/04/02 04:10:43;;;;;;;5.15;0.93;;;;;;;1.52;57.41;99851.53;5017405;28;20038;-58
2022/04/02 04:13:08;;;;;;;3.28;1.38;;;;;;;1.49;57.41;99847.22;5016587;28;20469;-56
2022/04/02 04:15:34;;;;;;;2.55;1.35;;;;;;;1.54;56.96;99840.31;5031149;28;20072;-56
2022/04/02 04:17:59;;;;;;;4.47;1.27;;;;;;;1.51;57.06;99861.03;5035541;28;20060;-57
2022/04/02 04:20:25;;;;;;;3.67;1.08;;;;;;;1.51;56.79;99845.47;5021186;28;20066;-57
2022/04/02 04:22:52;;;;;;;2.92;1.30;;;;;;;1.51;56.07;99854.97;5015372;28;20111;-56
2022/04/02 04:25:17;;;;;;;2.70;1.23;;;;;;;1.57;56.19;99865.38;5025742;28;20045;-58
2022/04/02 04:27:43;;;;;;;4.05;1.20;;;;;;;1.67;55.98;99857.66;5035053;28;20034;-54
2022/04/02 04:30:09;;;;;;;6.13;1.40;;;;;;;1.65;55.91;99859.41;5033310;28;20056;-56
2022/04/02 04:32:34;;;;;;;5.30;1.50;;;;;;;1.67;55.30;99875.78;5033095;28;20443;-56
2022/04/02 04:35:00;;;;;;;2.53;1.10;;;;;;;1.71;55.05;99861.16;5025691;28;20037;-57
2022/04/02 04:37:26;;;;;;;3.50;1.20;;;;;;;1.72;54.93;99860.31;5014818;28;20120;-58
2022/04/02 04:39:52;;;;;;;3.03;1.20;;;;;;;1.73;54.78;99878.44;5021514;28;20068;-57
2022/04/02 04:42:17;;;;;;;3.13;1.05;;;;;;;1.79;54.45;99868.97;5033992;28;20424;-56
2022/04/02 04:44:43;;;;;;;2.25;1.08;;;;;;;1.81;54.78;99862.94;5025960;28;20082;-56
2022/04/02 04:47:09;;;;;;;3.15;1.15;;;;;;;1.82;54.71;99871.56;5015266;28;20038;-56
2022/04/02 04:49:35;;;;;;;2.65;1.27;;;;;;;1.77;54.21;99868.09;5032732;28;20067;-56
2022/04/02 04:52:00;;;;;;;2.47;0.98;;;;;;;1.86;54.35;99878.50;5016424;28;20077;-53
2022/04/02 04:54:25;;;;;;;3.30;1.25;;;;;;;1.93;54.07;99873.38;5020542;28;20091;-57
2022/04/02 04:56:51;;;;;;;2.92;1.10;;;;;;;1.90;53.68;99886.31;5034485;28;20029;-57
2022/04/02 04:59:16;;;;;;;4.28;1.27;;;;;;;1.86;53.80;99881.97;5030609;28;20043;-59
2022/04/02 05:01:42;;;;;;;2.50;1.00;;;;;;;2.02;53.26;99890.69;5033039;28;20029;-57
2022/04/02 05:04:08;;;;;;;4.40;1.13;;;;;;;2.05;53.13;99887.25;5031610;28;20140;-57
2022/04/02 05:06:35;;;;;;;3.70;1.30;;;;;;;2.10;52.85;99893.31;5032819;28;20396;-57
2022/04/02 05:09:01;;;;;;;4.65;1.20;;;;;;;2.11;52.42;99898.50;5025543;28;20448;-58
2022/04/02 05:11:27;;;;;;;3.17;1.23;;;;;;;2.19;52.69;99890.75;5029074;28;20025;-57
2022/04/02 05:13:52;;;;;;;3.83;1.30;;;;;;;2.28;52.25;99892.56;5013406;28;20084;-56
2022/04/02 05:16:18;;;;;;;3.83;1.10;;;;;;;2.28;52.12;99890.81;5013444;28;20459;-57
2022/04/02 05:18:44;;;;;;;2.35;0.98;;;;;;;2.27;51.80;99908.94;5033538;28;20525;-56
2022/04/02 05:21:10;;;;;;;3.13;1.10;;;;;;;2.37;51.59;99908.13;5030842;28;20069;-57
2022/04/02 05:23:36;;;;;;;2.63;1.25;;;;;;;2.39;51.45;99903.81;5031603;28;20037;-52
2022/04/02 05:26:02;;;;;;;4.45;1.35;;;;;;;2.34;51.23;99915.91;5018403;28;20064;-58
2022/04/02 05:28:28;;;;;;;3.03;1.00;;;;;;;2.42;51.42;99909.88;5016006;28;20038;-59
2022/04/02 05:30:54;;;;;;;3.80;1.50;;;;;;;2.45;50.92;99911.63;5022569;28;20091;-57
2022/04/02 05:33:21;;;;;;;2.78;1.00;;;;;;;2.53;50.96;99907.31;5033389;28;20033;-58
2022/04/02 05:35:47;;;;;;;3.83;1.20;;;;;;;2.49;50.96;99912.50;5018909;28;20034;-57
2022/04/02 05:38:13;;;;;;;3.28;1.10;;;;;;;2.57;50.64;99905.63;5014721;28;20066;-58
2022/04/02 05:40:39;;;;;;;4.13;1.42;;;;;;;2.67;50.54;99926.41;5021007;28;20473;-56
2022/04/02 05:43:05;;;;;;;3.78;1.30;;;;;;;2.71;50.60;99920.38;5020561;28;20068;-53
2022/04/02 05:45:32;;;;;;;4.82;1.48;;;;;;;2.64;50.44;99928.97;5014812;28;20042;-57
2022/04/02 05:47:57;;;;;;;2.28;1.02;;;;;;;2.81;50.00;99920.38;5022595;28;20045;-57
2022/04/02 05:50:25;;;;;;;4.53;1.48;;;;;;;2.98;49.30;99918.69;5016703;28;20420;-58
2022/04/02 05:52:51;;;;;;;3.50;1.30;;;;;;;3.09;48.90;99905.72;5022052;28;20497;-56
2022/04/02 05:55:17;;;;;;;8.48;1.45;;;;;;;3.08;48.53;99915.25;5013911;28;20156;-57
2022/04/02 05:57:44;;;;;;;2.63;1.27;;;;;;;3.23;48.33;99911.78;5013808;28;20026;-57
2022/04/02 06:00:12;;;;;;;5.03;1.35;;;;;;;3.30;47.65;99942.06;5013815;28;20034;-57
2022/04/02 06:02:38;;;;;;;3.38;1.10;;;;;;;3.37;47.56;99922.19;5012768;28;20489;-57
2022/04/02 06:05:07;;;;;;;3.55;1.30;;;;;;;3.41;47.14;99931.72;5017479;28;20371;-59
2022/04/02 06:07:32;;;;;;;3.03;1.30;;;;;;;3.55;46.95;99926.50;5030082;28;20041;-57
2022/04/02 06:09:58;;;;;;;4.78;1.77;;;;;;;3.47;46.51;99923.91;5030225;28;20025;-56
2022/04/02 06:12:23;;;;;;;3.22;1.45;;;;;;;3.61;46.31;99939.50;5012765;28;20466;-58
2022/04/02 06:14:49;;;;;;;3.15;1.15;;;;;;;3.67;46.02;99927.38;5013742;28;20026;-56
2022/04/02 06:17:14;;;;;;;3.17;1.33;;;;;;;3.86;45.84;99927.34;5020206;28;20413;-58
2022/04/02 06:19:40;;;;;;;6.53;1.48;;;;;;;3.74;45.71;99937.75;5032669;28;20049;-57
2022/04/02 06:22:07;;;;;;;4.18;1.15;;;;;;;3.93;44.89;99955.06;5028688;28;20042;-56
2022/04/02 06:24:35;;;;;;;3.75;1.45;;;;;;;3.97;44.58;99914.34;5025390;28;20029;-57
2022/04/02 06:27:01;;;;;;;5.70;1.20;;;;;;;4.07;44.26;99948.13;5033329;28;20572;-56
2022/04/02 06:29:27;;;;;;;3.67;1.35;;;;;;;4.17;44.03;99936.81;5014642;28;20034;-57
2022/04/02 06:31:53;;;;;;;5.68;1.45;;;;;;;4.26;43.17;99958.44;5013573;28;20116;-57
2022/04/02 06:34:18;;;;;;;6.78;1.48;;;;;;;4.28;42.63;99946.31;5011985;28;20030;-56
2022/04/02 06:36:43;;;;;;;5.70;1.65;;;;;;;4.48;42.21;99957.53;5017581;28;20557;-57
2022/04/02 06:39:12;;;;;;;12.55;1.80;;;;;;;4.46;41.55;99951.44;5014519;28;20077;-55
2022/04/02 06:41:37;;;;;;;11.98;2.35;;;;;;;4.61;41.22;99951.38;5023077;28;20092;-58
2022/04/02 06:44:03;;;;;;;21.85;2.40;;;;;;;4.50;40.92;99953.16;5013478;28;20038;-56
2022/04/02 06:46:29;;;;;;;8.43;1.10;;;;;;;4.49;41.03;99968.78;5024373;28;20545;-58
2022/04/02 06:48:54;;;;;;;4.85;1.58;;;;;;;4.62;40.66;99955.72;5032699;28;20037;-58
2022/04/02 06:51:20;;;;;;;5.95;1.27;;;;;;;4.88;40.45;99954.75;5030089;28;20053;-57
2022/04/02 06:53:45;;;;;;;4.80;1.35;;;;;;;4.84;40.60;99958.25;5032963;28;20113;-54
2022/04/02 06:56:11;;;;;;;11.55;1.55;;;;;;;4.77;39.60;99961.75;5022140;28;20436;-57
2022/04/02 06:58:41;;;;;;;3.88;1.33;;;;;;;4.78;39.17;99942.63;5013841;28;20041;-58
2022/04/02 07:01:06;;;;;;;5.93;1.85;;;;;;;4.94;39.18;99954.69;5017874;28;20037;-55
2022/04/02 07:03:35;;;;;;;7.53;2.10;;;;;;;4.87;39.51;99940.88;5028521;28;20038;-56
2022/04/02 07:06:00;;;;;;;4.32;1.40;;;;;;;4.96;39.40;99952.97;5015577;28;20038;-57
2022/04/02 07:08:26;;;;;;;4.95;1.38;;;;;;;5.08;38.93;99962.44;5026372;28;20052;-58
2022/04/02 07:10:51;;;;;;;4.13;1.10;;;;;;;4.91;38.76;99970.34;5017815;28;20041;-57
2022/04/02 07:13:17;;;;;;;16.67;1.80;;;;;;;4.94;38.63;99970.31;5033654;28;20041;-57
2022/04/02 07:15:42;;;;;;;9.10;1.48;;;;;;;5.03;38.42;99983.31;5029183;28;20045;-59
2022/04/02 07:18:10;;;;;;;13.88;2.15;;;;;;;4.82;38.45;100001.63;5017781;28;20038;-58
2022/04/02 07:20:36;;;;;;;5.90;1.42;;;;;;;4.84;38.39;99984.28;5017392;28;20026;-59
2022/04/02 07:23:09;;;;;;;4.15;1.17;;;;;;;5.06;38.99;99980.66;5023410;28;20072;-58
2022/04/02 07:25:38;;;;;;;5.18;1.20;;;;;;;5.30;39.04;99994.41;5026987;28;20481;-59
2022/04/02 07:28:05;;;;;;;6.53;1.73;;;;;;;5.03;39.74;100001.53;5032576;28;20042;-56
2022/04/02 07:30:32;;;;;;;6.05;2.03;;;;;;;4.86;40.08;99982.50;5017368;28;20038;-59
2022/04/02 07:32:58;;;;;;;10.18;1.70;;;;;;;4.94;39.63;100051.03;5021796;28;20038;-57
2022/04/02 07:35:23;;;;;;;5.88;1.63;;;;;;;4.90;39.88;99985.09;5027783;28;20040;-58
2022/04/02 07:37:58;;;;;;;6.50;1.60;;;;;;;5.09;40.15;99993.69;5018060;28;20049;-57
2022/04/02 07:40:26;;;;;;;4.15;1.70;;;;;;;5.18;40.26;100000.56;5016044;28;20044;-56
2022/04/02 07:43:10;;;;;;;13.45;2.55;;;;;;;5.17;39.24;99999.72;5020217;28;20061;-59
2022/04/02 07:45:45;;;;;;;5.13;1.40;;;;;;;5.07;37.39;100011.06;5028329;28;20037;-57
2022/04/02 07:48:11;;;;;;;6.05;1.40;;;;;;;5.25;37.85;100006.63;5025307;28;20393;-56
2022/04/02 07:50:42;;;;;;;21.80;2.83;;;;;;;5.22;35.84;100017.03;5034033;28;20080;-58
2022/04/02 07:53:16;;;;;;;3.67;1.55;;;;;;;5.36;36.17;99999.59;5028837;28;20038;-59
2022/04/02 07:55:47;;;;;;;5.88;1.63;;;;;;;5.29;36.36;100005.72;5034963;28;20116;-57
2022/04/02 07:58:17;;;;;;;5.50;1.10;;;;;;;5.40;36.40;100011.72;5031131;28;20030;-58
2022/04/02 08:00:47;;;;;;;6.38;1.52;;;;;;;5.26;36.14;100030.03;5033683;28;20083;-58
2022/04/02 08:03:13;;;;;;;4.78;1.13;;;;;;;5.67;35.46;100035.00;5015786;28;20041;-58
2022/04/02 08:05:38;;;;;;;5.50;1.63;;;;;;;5.82;34.81;99970.56;5024040;28;20030;-58
2022/04/02 08:08:06;;;;;;;5.07;1.40;;;;;;;5.84;33.90;100023.59;5021408;28;20092;-57
2022/04/02 08:10:32;;;;;;;6.13;1.67;;;;;;;6.02;34.24;100023.44;5033873;28;20496;-57
2022/04/02 08:13:00;;;;;;;6.10;1.23;;;;;;;6.20;34.06;100026.78;5034658;28;20041;-58
2022/04/02 08:15:26;;;;;;;4.60;1.20;;;;;;;6.17;34.07;100015.47;5015563;28;20036;-59
2022/04/02 08:17:54;;;;;;;4.50;1.50;;;;;;;6.07;35.67;100032.13;5023495;28;20108;-59
2022/04/02 08:20:20;;;;;;;3.63;1.02;;;;;;;6.16;35.28;100024.19;5022684;28;20481;-57
2022/04/02 08:22:47;;;;;;;5.53;1.40;;;;;;;6.02;34.43;100070.38;5026210;28;20061;-58
2022/04/02 08:25:13;;;;;;;4.15;1.25;;;;;;;5.93;34.34;100039.19;5015327;28;20120;-59
2022/04/02 08:28:08;;;;;;;5.20;1.38;;;;;;;5.93;34.40;100037.44;5033849;28;20099;-58
2022/04/02 08:30:47;;;;;;;9.40;3.20;;;;;;;6.25;34.32;100053.69;5034535;28;20037;-58
2022/04/02 08:33:42;;;;;;;10.23;3.10;;;;;;;6.21;34.28;100034.59;5032565;28;20041;-55
2022/04/02 08:36:40;;;;;;;4.88;1.65;;;;;;;5.94;35.50;100038.28;5034235;28;20045;-57
2022/04/02 08:39:15;;;;;;;4.45;1.58;;;;;;;6.30;35.48;100049.28;5032083;28;20057;-59
2022/04/02 08:42:11;;;;;;;9.65;1.73;;;;;;;6.08;34.71;100049.50;5032914;28;20218;-57
2022/04/02 08:44:57;;;;;;;3.20;1.38;;;;;;;6.14;34.08;100069.41;5029104;28;20113;-57
2022/04/02 08:47:43;;;;;;;7.45;1.27;;;;;;;5.67;34.23;100099.31;5027993;28;20037;-57
2022/04/02 08:50:15;;;;;;;2.65;0.90;;;;;;;5.94;34.84;100056.53;5024042;28;20414;-57
2022/04/02 08:53:20;;;;;;;9.90;1.75;;;;;;;6.19;34.79;100058.97;5018454;28;20033;-58
2022/04/02 08:56:01;;;;;;;8.30;1.75;;;;;;;6.28;33.78;100048.44;5020706;28;20482;-58
2022/04/02 08:58:56;;;;;;;6.05;1.58;;;;;;;6.29;33.49;100037.13;5031491;28;20025;-57
2022/04/02 09:01:24;;;;;;;3.00;1.10;;;;;;;6.20;33.99;100063.31;5032323;28;20037;-59
2022/04/02 09:04:17;;;;;;;2.25;1.23;;;;;;;6.26;34.28;100055.41;5022646;28;20036;-57
2022/04/02 09:07:00;;;;;;;2.30;1.30;;;;;;;6.34;33.57;100050.97;5031593;28;20038;-58
2022/04/02 09:09:35;;;;;;;4.38;1.25;;;;;;;6.09;32.74;100098.16;5025570;28;20033;-58
2022/04/02 09:12:17;;;;;;;2.75;1.00;;;;;;;6.13;33.07;100073.78;5041284;28;20021;-59
2022/04/02 09:15:01;;;;;;;4.97;1.40;;;;;;;5.75;34.22;100060.16;5035206;28;20029;-59
2022/04/02 09:17:44;;;;;;;7.95;1.33;;;;;;;5.73;33.80;100064.50;5050574;28;20384;-59
2022/04/02 09:20:19;;;;;;;;;;;;;;;5.56;33.88;100093.28;5019485;28;20033;-59
2022/04/02 09:23:07;;;;;;;4.53;0.95;;;;;;;5.57;33.50;100056.78;5023767;28;19924;-60
2022/04/02 09:25:56;;;;;;;4.43;1.15;;;;;;;5.76;32.85;100061.88;5020011;28;20056;-58
2022/04/02 09:28:59;;;;;;;6.72;1.40;;;;;;;5.82;33.05;100069.66;5015642;28;20486;-59
2022/04/02 09:31:52;;;;;;;4.10;1.25;;;;;;;5.83;34.08;100094.88;5015022;28;20465;-58
2022/04/02 09:34:30;;;;;;;2.40;0.90;;;;;;;5.63;34.41;100061.97;5021628;28;20084;-59
2022/04/02 09:37:13;;;;;;;3.67;1.33;;;;;;;5.92;34.29;100058.31;5023820;28;20033;-59
2022/04/02 09:39:38;;;;;;;;;;;;;;;5.68;33.86;100093.22;5033307;28;20053;-59
2022/04/02 09:42:34;;;;;;;3.80;1.40;;;;;;;6.01;34.54;100052.16;5029178;28;20434;-59
2022/04/02 09:45:22;;;;;;;2.83;1.27;;;;;;;5.96;35.31;100059.16;5033620;28;20473;-59
2022/04/02 09:47:48;;;;;;;8.23;1.30;;;;;;;5.82;34.01;100074.84;5018915;28;20478;-58
2022/04/02 09:50:19;;;;;;;4.35;1.20;;;;;;;5.47;34.43;100075.97;5028977;28;20029;-57
2022/04/02 09:52:56;;;;;;;2.60;0.80;;;;;;;5.62;34.26;100098.44;5030356;28;20037;-58
2022/04/02 09:55:39;;;;;;;3.88;0.98;;;;;;;5.59;32.83;100060.25;5024934;28;20029;-59
2022/04/02 09:58:19;;;;;;;8.10;1.10;;;;;;;5.79;33.75;100070.56;5029410;28;20068;-57
2022/04/02 10:00:57;;;;;;;3.78;0.98;;;;;;;5.66;33.34;100098.44;5032717;28;20077;-57
2022/04/02 10:03:29;;;;;;;3.95;0.90;;;;;;;5.67;33.66;100084.53;5032946;28;20025;-57
2022/04/02 10:06:20;;;;;;;6.63;1.35;;;;;;;5.67;33.98;100121.03;5024937;28;20038;-58
2022/04/02 10:09:14;;;;;;;3.65;1.17;;;;;;;5.70;35.81;100057.56;5018603;28;20042;-58
2022/04/02 10:11:47;;;;;;;3.20;1.25;;;;;;;5.93;35.68;100070.47;5012379;28;20033;-57
2022/04/02 10:14:19;;;;;;;5.07;1.45;;;;;;;5.71;36.30;100074.09;5014927;28;20488;-57
2022/04/02 10:16:50;;;;;;;4.57;1.23;;;;;;;5.95;36.03;100068.72;5028703;28;20037;-56
2022/04/02 10:19:17;;;;;;;3.90;1.20;;;;;;;5.99;35.95;100046.09;5031136;28;20060;-58
2022/04/02 10:21:54;;;;;;;4.82;1.38;;;;;;;6.19;36.06;100043.31;5032427;28;20377;-55
2022/04/02 10:24:28;;;;;;;4.38;1.38;;;;;;;6.58;34.96;100045.53;5019456;28;20033;-55
2022/04/02 10:26:58;;;;;;;4.78;1.10;;;;;;;6.17;35.19;100091.13;5013494;28;20038;-56
2022/04/02 10:29:28;;;;;;;6.03;1.67;;;;;;;5.91;35.66;100056.56;5018578;28;20485;-57
2022/04/02 10:32:04;;;;;;;5.80;1.70;;;;;;;5.92;35.65;100077.44;5032453;28;20038;-57
2022/04/02 10:34:32;;;;;;;8.68;1.92;;;;;;;5.79;36.00;100090.53;5032144;28;20037;-58
2022/04/02 10:37:12;;;;;;;13.77;2.30;;;;;;;5.88;35.96;100067.00;5026965;28;20045;-57
2022/04/02 10:39:44;;;;;;;5.63;1.95;;;;;;;5.90;35.82;100060.03;5036247;28;20050;-56
2022/04/02 10:42:17;;;;;;;5.20;1.50;;;;;;;5.91;35.47;100093.06;5027166;28;20136;-57
2022/04/02 10:44:58;;;;;;;6.10;1.88;;;;;;;5.89;35.29;100071.34;5030212;28;20040;-57
2022/04/02 10:47:27;;;;;;;4.22;1.23;;;;;;;6.04;35.06;100071.25;5020140;28;20042;-56
2022/04/02 10:50:00;;;;;;;3.03;1.35;;;;;;;5.99;33.80;100080.88;5036364;28;20546;-56
2022/04/02 10:52:26;;;;;;;7.32;1.60;;;;;;;6.06;35.32;100074.69;5031059;28;20029;-59
2022/04/02 10:54:52;;;;;;;6.85;1.85;;;;;;;6.09;35.36;100076.44;5016982;28;20049;-59
2022/04/02 10:57:18;;;;;;;5.70;1.65;;;;;;;5.96;35.18;100054.81;5026679;28;20033;-57
2022/04/02 10:59:47;;;;;;;3.25;1.35;;;;;;;5.84;34.82;100071.38;5038724;28;20033;-60
2022/04/02 11:02:23;;;;;;;3.80;1.50;;;;;;;5.78;36.09;100096.63;5043685;28;20091;-58
2022/04/02 11:04:59;;;;;;;5.20;1.60;;;;;;;5.90;36.05;100062.63;5036665;28;20516;-56
2022/04/02 11:07:37;;;;;;;8.90;1.13;;;;;;;5.48;35.64;100132.41;5036379;28;20079;-59
2022/04/02 11:10:04;;;;;;;8.93;1.92;;;;;;;5.72;35.73;100061.03;5037871;28;20053;-60
2022/04/02 11:12:33;;;;;;;2.85;1.48;;;;;;;6.11;35.09;100062.50;5036497;28;20037;-58
2022/04/02 11:15:16;;;;;;;4.88;1.65;;;;;;;6.26;34.90;100071.91;5047647;28;20480;-59
2022/04/02 11:17:45;;;;;;;7.80;1.42;;;;;;;6.34;34.23;100067.53;5016679;28;20040;-59
2022/04/02 11:20:22;;;;;;;3.08;1.30;;;;;;;6.48;34.69;100045.63;5016834;28;20037;-60
2022/04/02 11:22:57;;;;;;;7.68;1.63;;;;;;;6.58;34.88;100070.75;5016568;28;20041;-59
2022/04/02 11:25:28;;;;;;;2.83;0.98;;;;;;;6.15;33.55;100086.84;5015117;28;20026;-58
2022/04/02 11:27:55;;;;;;;4.55;2.03;;;;;;;6.21;34.15;100106.78;5033105;28;20037;-55
2022/04/02 11:30:26;;;;;;;4.18;1.80;;;;;;;6.14;34.23;100079.84;5016284;28;20073;-58
2022/04/02 11:33:01;;;;;;;6.80;1.17;;;;;;;5.82;34.78;100093.13;5023658;28;20041;-57
2022/04/02 11:35:29;;;;;;;5.50;1.88;;;;;;;5.73;35.76;100101.00;5026116;28;20025;-59
2022/04/02 11:38:03;;;;;;;4.00;1.45;;;;;;;5.95;34.69;100080.91;5025170;28;20173;-58
2022/04/02 11:40:30;;;;;;;4.22;1.67;;;;;;;6.05;34.35;100077.34;5030163;28;20481;-57
2022/04/02 11:43:03;;;;;;;6.10;1.42;;;;;;;5.79;35.35;100080.13;5030999;28;20485;-59
2022/04/02 11:45:32;;;;;;;5.30;1.50;;;;;;;6.04;35.17;100099.94;5028561;28;20029;-59
2022/04/02 11:48:18;;;;;;;6.82;1.48;;;;;;;5.83;33.49;100084.44;5035418;28;20405;-58
2022/04/02 11:50:45;;;;;;;6.20;1.20;;;;;;;5.84;34.75;100091.38;5016331;28;20038;-59
2022/04/02 11:53:12;;;;;;;2.85;1.42;;;;;;;6.16;34.44;100088.56;5015811;28;20041;-59
2022/04/02 11:55:39;;;;;;;10.13;1.20;;;;;;;6.04;34.66;100075.59;5015891;28;20432;-59
2022/04/02 11:58:13;;;;;;;5.28;1.60;;;;;;;6.27;34.18;100078.03;5015938;28;20116;-59